社長、ちょいちょい羽田に出没中。

LUXURY FLIGHT

03-6423-7371

羽田本店:東京都大田区羽田5-11-1
営業時間:10:00~20:00
定休日:毎週 月曜日
セントレア店:愛知県常滑市セントレア1-1
営業時間:10:00~20:00 年中無休

lv

社長、ちょいちょい羽田に出没中。

STAFF BLOG

2019/05/07 社長、ちょいちょい羽田に出没中。

こんちわわわわわーーーー

 

羽田周辺本日のMETARは…

 

5/7 9:30 JST

RJTT 070030Z 07010KT 9999 FEW030 SCT040 BKN070 17/10 Q1009 BECMG 02010KT

 

涼しいです!!

日向は暑いくらいですが日陰はやや肌寒く感じます。

 

 

さてさて、このブログの読者の方はよくご存知かと思われるこのお方…

 

 

 

 

そうです

 

 

 

 

 

 

「穴守稲荷の哀川翔」といえば、泣く子も黙る弊社代表の岸田でございます。笑

 

 

一時はセントレアを専従の地としておりましたが、

ここ最近セントレア店にも頼もしい仲間が増え、お店を任せられるほどに成長

 

 

いまのところ、月に数回のタイミングにはなってしまいますが、

ちょこちょこ羽田店に顔を出せるタイミングが増えて参りました

 

 

私自身も、もちろん嬉しいですし、様々な業務の相談事ができる安心感もありますが、

何よりも、

社長本人が慣れ親しんだお客様に直接会ってお話できるのがすごく嬉しそうです

 

 

 

LUXURY FLIGHTの歴史を共に作ってくださったお客様に感謝

 

 

 

img_1268

※早速、大常連様&自動車レーサーのA様に「熱血PAPI塾」を開催している様子。笑

 

 

 

という訳で、今後は再び羽田店が騒がしくなる予感がします。笑

毎日がお祭り騒ぎな状況になるかと思いますが皆様、

どうか…引かないでくださーーーーーーーーい

 

 

 

引き続き、

皆様に最高のフライトを楽しんでいただくべく、

社長以下、私を含むスタッフ一同、

全力でサポートさせていただきます

 

何卒何卒

なにとぞよろしくお願いいたします!!!!

 

いつもブログを読んでくださり本当にありがとうございます。

「感謝」

TOP